sensor_id;sensor_type;location;lat;lon;timestamp;P1;durP1;ratioP1;P2;durP2;ratioP2
21330;SDS011;10824;51.632;4.950;2023-02-18T00:01:32;17.05;;;7.35;;
21330;SDS011;10824;51.632;4.950;2023-02-18T00:03:59;21.67;;;8.20;;
21330;SDS011;10824;51.632;4.950;2023-02-18T00:06:29;19.95;;;8.05;;
21330;SDS011;10824;51.632;4.950;2023-02-18T00:08:58;16.97;;;8.17;;
21330;SDS011;10824;51.632;4.950;2023-02-18T00:11:30;24.92;;;8.18;;
21330;SDS011;10824;51.632;4.950;2023-02-18T00:14:00;19.05;;;8.10;;
21330;SDS011;10824;51.632;4.950;2023-02-18T00:16:31;20.13;;;9.32;;
21330;SDS011;10824;51.632;4.950;2023-02-18T00:19:00;25.67;;;9.57;;
21330;SDS011;10824;51.632;4.950;2023-02-18T00:21:29;25.85;;;8.38;;
21330;SDS011;10824;51.632;4.950;2023-02-18T00:23:58;16.02;;;7.07;;
21330;SDS011;10824;51.632;4.950;2023-02-18T00:26:26;22.02;;;8.55;;
21330;SDS011;10824;51.632;4.950;2023-02-18T00:28:58;17.77;;;7.93;;
21330;SDS011;10824;51.632;4.950;2023-02-18T00:31:27;19.50;;;8.45;;
21330;SDS011;10824;51.632;4.950;2023-02-18T00:33:58;20.98;;;7.70;;
21330;SDS011;10824;51.632;4.950;2023-02-18T00:36:26;20.50;;;7.07;;
21330;SDS011;10824;51.632;4.950;2023-02-18T00:38:55;20.45;;;8.13;;
21330;SDS011;10824;51.632;4.950;2023-02-18T00:41:27;15.20;;;7.25;;
21330;SDS011;10824;51.632;4.950;2023-02-18T00:43:55;20.15;;;7.55;;
21330;SDS011;10824;51.632;4.950;2023-02-18T00:46:23;20.25;;;7.47;;
21330;SDS011;10824;51.632;4.950;2023-02-18T00:48:56;17.77;;;6.88;;
21330;SDS011;10824;51.632;4.950;2023-02-18T00:51:23;17.23;;;7.28;;
21330;SDS011;10824;51.632;4.950;2023-02-18T00:53:54;19.85;;;6.72;;
21330;SDS011;10824;51.632;4.950;2023-02-18T00:56:26;21.27;;;7.55;;
21330;SDS011;10824;51.632;4.950;2023-02-18T00:58:54;14.75;;;6.40;;
21330;SDS011;10824;51.632;4.950;2023-02-18T01:01:21;22.98;;;7.10;;
21330;SDS011;10824;51.632;4.950;2023-02-18T01:03:49;15.45;;;6.63;;
21330;SDS011;10824;51.632;4.950;2023-02-18T01:06:17;17.58;;;7.63;;
21330;SDS011;10824;51.632;4.950;2023-02-18T01:08:46;18.50;;;7.50;;
21330;SDS011;10824;51.632;4.950;2023-02-18T01:11:14;26.83;;;8.95;;
21330;SDS011;10824;51.632;4.950;2023-02-18T01:13:41;18.92;;;7.65;;
21330;SDS011;10824;51.632;4.950;2023-02-18T01:16:09;17.45;;;8.32;;
21330;SDS011;10824;51.632;4.950;2023-02-18T01:18:37;20.77;;;9.18;;
21330;SDS011;10824;51.632;4.950;2023-02-18T01:21:05;20.90;;;7.78;;
21330;SDS011;10824;51.632;4.950;2023-02-18T01:23:38;18.73;;;7.13;;
21330;SDS011;10824;51.632;4.950;2023-02-18T01:26:06;18.42;;;6.95;;
21330;SDS011;10824;51.632;4.950;2023-02-18T01:28:36;14.95;;;6.82;;
21330;SDS011;10824;51.632;4.950;2023-02-18T01:31:08;23.02;;;8.00;;
21330;SDS011;10824;51.632;4.950;2023-02-18T01:33:37;18.13;;;6.78;;
21330;SDS011;10824;51.632;4.950;2023-02-18T01:36:05;19.58;;;7.18;;
21330;SDS011;10824;51.632;4.950;2023-02-18T01:38:34;16.42;;;6.13;;
21330;SDS011;10824;51.632;4.950;2023-02-18T01:41:01;15.80;;;5.88;;
21330;SDS011;10824;51.632;4.950;2023-02-18T01:43:28;12.95;;;6.13;;
21330;SDS011;10824;51.632;4.950;2023-02-18T01:48:31;13.40;;;5.90;;
21330;SDS011;10824;51.632;4.950;2023-02-18T01:51:27;12.45;;;5.20;;
21330;SDS011;10824;51.632;4.950;2023-02-18T01:54:02;18.73;;;5.70;;
21330;SDS011;10824;51.632;4.950;2023-02-18T01:56:44;20.42;;;6.70;;
21330;SDS011;10824;51.632;4.950;2023-02-18T01:59:16;19.17;;;7.10;;
21330;SDS011;10824;51.632;4.950;2023-02-18T02:01:59;16.13;;;7.20;;
21330;SDS011;10824;51.632;4.950;2023-02-18T02:04:28;17.92;;;7.40;;
21330;SDS011;10824;51.632;4.950;2023-02-18T02:06:55;16.85;;;7.05;;
21330;SDS011;10824;51.632;4.950;2023-02-18T02:09:23;18.80;;;7.57;;
21330;SDS011;10824;51.632;4.950;2023-02-18T02:17:09;20.15;;;9.02;;
21330;SDS011;10824;51.632;4.950;2023-02-18T02:23:12;17.52;;;8.90;;
21330;SDS011;10824;51.632;4.950;2023-02-18T02:32:00;19.90;;;8.35;;
21330;SDS011;10824;51.632;4.950;2023-02-18T02:48:57;17.95;;;7.85;;
21330;SDS011;10824;51.632;4.950;2023-02-18T02:51:51;19.63;;;8.88;;
21330;SDS011;10824;51.632;4.950;2023-02-18T02:54:25;19.27;;;8.35;;
21330;SDS011;10824;51.632;4.950;2023-02-18T03:00:07;17.23;;;8.48;;
21330;SDS011;10824;51.632;4.950;2023-02-18T03:06:04;17.75;;;7.43;;
21330;SDS011;10824;51.632;4.950;2023-02-18T03:12:15;16.40;;;7.43;;
21330;SDS011;10824;51.632;4.950;2023-02-18T03:15:20;12.98;;;6.03;;
21330;SDS011;10824;51.632;4.950;2023-02-18T03:17:53;12.82;;;6.82;;
21330;SDS011;10824;51.632;4.950;2023-02-18T03:20:30;9.65;;;4.40;;
21330;SDS011;10824;51.632;4.950;2023-02-18T03:23:04;11.18;;;5.18;;
21330;SDS011;10824;51.632;4.950;2023-02-18T03:25:37;10.55;;;4.88;;
21330;SDS011;10824;51.632;4.950;2023-02-18T03:28:09;11.13;;;4.85;;
21330;SDS011;10824;51.632;4.950;2023-02-18T03:30:49;10.50;;;5.30;;
21330;SDS011;10824;51.632;4.950;2023-02-18T03:33:21;11.40;;;4.47;;
21330;SDS011;10824;51.632;4.950;2023-02-18T03:35:52;9.20;;;5.25;;
21330;SDS011;10824;51.632;4.950;2023-02-18T03:41:05;6.63;;;3.58;;
21330;SDS011;10824;51.632;4.950;2023-02-18T03:43:33;13.27;;;4.80;;
21330;SDS011;10824;51.632;4.950;2023-02-18T03:48:35;8.43;;;4.05;;
21330;SDS011;10824;51.632;4.950;2023-02-18T03:51:02;9.23;;;5.80;;
21330;SDS011;10824;51.632;4.950;2023-02-18T03:53:32;9.75;;;3.80;;
21330;SDS011;10824;51.632;4.950;2023-02-18T03:55:59;10.30;;;4.05;;
21330;SDS011;10824;51.632;4.950;2023-02-18T03:58:26;6.85;;;3.05;;
21330;SDS011;10824;51.632;4.950;2023-02-18T04:00:53;6.80;;;3.40;;
21330;SDS011;10824;51.632;4.950;2023-02-18T04:03:20;5.68;;;3.20;;
21330;SDS011;10824;51.632;4.950;2023-02-18T04:05:47;6.43;;;3.30;;
21330;SDS011;10824;51.632;4.950;2023-02-18T04:08:15;9.63;;;4.20;;
21330;SDS011;10824;51.632;4.950;2023-02-18T04:10:42;5.65;;;3.30;;
21330;SDS011;10824;51.632;4.950;2023-02-18T04:13:09;8.32;;;3.20;;
21330;SDS011;10824;51.632;4.950;2023-02-18T04:15:36;7.63;;;3.22;;
21330;SDS011;10824;51.632;4.950;2023-02-18T04:18:03;6.63;;;3.55;;
21330;SDS011;10824;51.632;4.950;2023-02-18T04:20:30;6.53;;;3.75;;
21330;SDS011;10824;51.632;4.950;2023-02-18T04:22:58;5.38;;;3.13;;
21330;SDS011;10824;51.632;4.950;2023-02-18T04:25:25;4.55;;;2.47;;
21330;SDS011;10824;51.632;4.950;2023-02-18T04:27:53;8.18;;;3.17;;
21330;SDS011;10824;51.632;4.950;2023-02-18T04:30:20;6.60;;;4.53;;
21330;SDS011;10824;51.632;4.950;2023-02-18T04:32:47;6.78;;;4.47;;
21330;SDS011;10824;51.632;4.950;2023-02-18T04:35:14;7.78;;;4.28;;
21330;SDS011;10824;51.632;4.950;2023-02-18T04:37:42;6.00;;;3.05;;
21330;SDS011;10824;51.632;4.950;2023-02-18T04:40:09;6.90;;;3.03;;
21330;SDS011;10824;51.632;4.950;2023-02-18T04:42:36;6.55;;;3.47;;
21330;SDS011;10824;51.632;4.950;2023-02-18T04:45:04;5.90;;;2.42;;
21330;SDS011;10824;51.632;4.950;2023-02-18T04:47:31;5.78;;;2.83;;
21330;SDS011;10824;51.632;4.950;2023-02-18T04:49:59;4.45;;;2.25;;
21330;SDS011;10824;51.632;4.950;2023-02-18T04:52:26;5.18;;;2.25;;
21330;SDS011;10824;51.632;4.950;2023-02-18T04:54:53;5.85;;;2.90;;
21330;SDS011;10824;51.632;4.950;2023-02-18T04:57:20;4.53;;;2.33;;
21330;SDS011;10824;51.632;4.950;2023-02-18T04:59:47;4.40;;;2.80;;
21330;SDS011;10824;51.632;4.950;2023-02-18T05:02:14;3.20;;;2.05;;
21330;SDS011;10824;51.632;4.950;2023-02-18T05:04:42;4.72;;;2.72;;
21330;SDS011;10824;51.632;4.950;2023-02-18T05:07:09;2.55;;;1.45;;
21330;SDS011;10824;51.632;4.950;2023-02-18T05:09:36;3.38;;;2.00;;
21330;SDS011;10824;51.632;4.950;2023-02-18T05:12:03;3.88;;;1.65;;
21330;SDS011;10824;51.632;4.950;2023-02-18T05:14:31;3.47;;;1.75;;
21330;SDS011;10824;51.632;4.950;2023-02-18T05:16:58;3.05;;;2.17;;
21330;SDS011;10824;51.632;4.950;2023-02-18T05:19:25;3.72;;;1.88;;
21330;SDS011;10824;51.632;4.950;2023-02-18T05:21:52;2.75;;;1.50;;
21330;SDS011;10824;51.632;4.950;2023-02-18T05:24:19;2.58;;;1.60;;
21330;SDS011;10824;51.632;4.950;2023-02-18T05:26:46;3.00;;;1.45;;
21330;SDS011;10824;51.632;4.950;2023-02-18T05:29:13;2.08;;;1.23;;
21330;SDS011;10824;51.632;4.950;2023-02-18T05:31:40;2.88;;;1.40;;
21330;SDS011;10824;51.632;4.950;2023-02-18T05:34:08;2.88;;;1.45;;
21330;SDS011;10824;51.632;4.950;2023-02-18T05:36:35;1.98;;;1.10;;
21330;SDS011;10824;51.632;4.950;2023-02-18T05:39:02;3.30;;;1.40;;
21330;SDS011;10824;51.632;4.950;2023-02-18T05:41:29;3.50;;;2.30;;
21330;SDS011;10824;51.632;4.950;2023-02-18T05:43:56;3.92;;;1.77;;
21330;SDS011;10824;51.632;4.950;2023-02-18T05:46:42;3.13;;;1.63;;
21330;SDS011;10824;51.632;4.950;2023-02-18T05:49:09;3.33;;;1.98;;
21330;SDS011;10824;51.632;4.950;2023-02-18T05:51:37;4.40;;;1.60;;
21330;SDS011;10824;51.632;4.950;2023-02-18T05:54:04;3.92;;;1.92;;
21330;SDS011;10824;51.632;4.950;2023-02-18T05:56:31;4.40;;;1.85;;
21330;SDS011;10824;51.632;4.950;2023-02-18T05:58:58;3.38;;;1.80;;
21330;SDS011;10824;51.632;4.950;2023-02-18T06:01:25;3.75;;;2.10;;
21330;SDS011;10824;51.632;4.950;2023-02-18T06:03:52;4.00;;;2.22;;
21330;SDS011;10824;51.632;4.950;2023-02-18T06:06:19;3.50;;;1.52;;
21330;SDS011;10824;51.632;4.950;2023-02-18T06:08:46;3.20;;;1.77;;
21330;SDS011;10824;51.632;4.950;2023-02-18T06:11:13;3.78;;;1.60;;
21330;SDS011;10824;51.632;4.950;2023-02-18T06:13:40;3.53;;;1.77;;
21330;SDS011;10824;51.632;4.950;2023-02-18T06:16:09;3.15;;;1.67;;
21330;SDS011;10824;51.632;4.950;2023-02-18T06:18:36;4.03;;;1.45;;
21330;SDS011;10824;51.632;4.950;2023-02-18T06:21:03;3.67;;;1.40;;
21330;SDS011;10824;51.632;4.950;2023-02-18T06:23:31;2.72;;;1.80;;
21330;SDS011;10824;51.632;4.950;2023-02-18T06:25:58;2.85;;;1.33;;
21330;SDS011;10824;51.632;4.950;2023-02-18T06:28:25;3.40;;;1.40;;
21330;SDS011;10824;51.632;4.950;2023-02-18T06:30:52;2.55;;;1.48;;
21330;SDS011;10824;51.632;4.950;2023-02-18T06:33:19;2.85;;;1.42;;
21330;SDS011;10824;51.632;4.950;2023-02-18T06:35:56;6.20;;;3.75;;
21330;SDS011;10824;51.632;4.950;2023-02-18T06:38:24;3.25;;;1.70;;
21330;SDS011;10824;51.632;4.950;2023-02-18T06:40:52;4.60;;;2.25;;
21330;SDS011;10824;51.632;4.950;2023-02-18T06:43:20;3.50;;;1.60;;
21330;SDS011;10824;51.632;4.950;2023-02-18T06:45:48;1.98;;;1.80;;
21330;SDS011;10824;51.632;4.950;2023-02-18T06:48:15;2.67;;;1.30;;
21330;SDS011;10824;51.632;4.950;2023-02-18T06:50:42;3.63;;;1.67;;
21330;SDS011;10824;51.632;4.950;2023-02-18T06:53:10;2.97;;;1.63;;
21330;SDS011;10824;51.632;4.950;2023-02-18T06:55:38;4.15;;;2.03;;
21330;SDS011;10824;51.632;4.950;2023-02-18T06:58:09;2.75;;;1.33;;
21330;SDS011;10824;51.632;4.950;2023-02-18T07:00:37;3.08;;;2.22;;
21330;SDS011;10824;51.632;4.950;2023-02-18T07:03:05;4.22;;;1.90;;
21330;SDS011;10824;51.632;4.950;2023-02-18T07:05:33;6.32;;;3.17;;
21330;SDS011;10824;51.632;4.950;2023-02-18T07:08:01;3.17;;;1.73;;
21330;SDS011;10824;51.632;4.950;2023-02-18T07:10:28;5.75;;;1.80;;
21330;SDS011;10824;51.632;4.950;2023-02-18T07:12:55;4.22;;;1.90;;
21330;SDS011;10824;51.632;4.950;2023-02-18T07:15:22;5.57;;;2.30;;
21330;SDS011;10824;51.632;4.950;2023-02-18T07:17:50;4.35;;;2.10;;
21330;SDS011;10824;51.632;4.950;2023-02-18T07:20:18;8.20;;;3.55;;
21330;SDS011;10824;51.632;4.950;2023-02-18T07:22:46;9.80;;;2.60;;
21330;SDS011;10824;51.632;4.950;2023-02-18T07:25:14;6.55;;;2.70;;
21330;SDS011;10824;51.632;4.950;2023-02-18T07:27:41;4.70;;;2.53;;
21330;SDS011;10824;51.632;4.950;2023-02-18T07:30:08;9.68;;;3.00;;
21330;SDS011;10824;51.632;4.950;2023-02-18T07:32:36;6.68;;;2.65;;
21330;SDS011;10824;51.632;4.950;2023-02-18T07:35:03;6.57;;;2.40;;
21330;SDS011;10824;51.632;4.950;2023-02-18T07:37:31;6.88;;;2.72;;
21330;SDS011;10824;51.632;4.950;2023-02-18T07:39:59;10.25;;;2.60;;
21330;SDS011;10824;51.632;4.950;2023-02-18T07:42:26;7.13;;;3.58;;
21330;SDS011;10824;51.632;4.950;2023-02-18T07:44:53;8.10;;;2.75;;
21330;SDS011;10824;51.632;4.950;2023-02-18T07:47:20;8.77;;;3.08;;
21330;SDS011;10824;51.632;4.950;2023-02-18T07:49:48;7.32;;;2.60;;
21330;SDS011;10824;51.632;4.950;2023-02-18T07:52:15;6.55;;;3.08;;
21330;SDS011;10824;51.632;4.950;2023-02-18T07:54:42;6.25;;;2.42;;
21330;SDS011;10824;51.632;4.950;2023-02-18T07:57:09;13.10;;;2.40;;
21330;SDS011;10824;51.632;4.950;2023-02-18T07:59:36;7.32;;;2.25;;
21330;SDS011;10824;51.632;4.950;2023-02-18T08:02:03;9.82;;;3.60;;
21330;SDS011;10824;51.632;4.950;2023-02-18T08:04:33;8.45;;;2.15;;
21330;SDS011;10824;51.632;4.950;2023-02-18T08:07:00;7.43;;;2.53;;
21330;SDS011;10824;51.632;4.950;2023-02-18T08:09:29;9.93;;;2.22;;
21330;SDS011;10824;51.632;4.950;2023-02-18T08:11:56;7.47;;;1.80;;
21330;SDS011;10824;51.632;4.950;2023-02-18T08:14:23;5.85;;;2.05;;
21330;SDS011;10824;51.632;4.950;2023-02-18T08:16:50;6.90;;;2.35;;
21330;SDS011;10824;51.632;4.950;2023-02-18T08:19:18;7.22;;;1.95;;
21330;SDS011;10824;51.632;4.950;2023-02-18T08:21:45;13.23;;;3.85;;
21330;SDS011;10824;51.632;4.950;2023-02-18T08:24:13;7.13;;;1.98;;
21330;SDS011;10824;51.632;4.950;2023-02-18T08:26:40;4.82;;;2.17;;
21330;SDS011;10824;51.632;4.950;2023-02-18T08:29:25;7.88;;;2.08;;
21330;SDS011;10824;51.632;4.950;2023-02-18T08:31:52;4.40;;;1.60;;
21330;SDS011;10824;51.632;4.950;2023-02-18T08:34:20;6.13;;;1.52;;
21330;SDS011;10824;51.632;4.950;2023-02-18T08:36:47;6.50;;;1.75;;
21330;SDS011;10824;51.632;4.950;2023-02-18T08:39:14;3.95;;;1.70;;
21330;SDS011;10824;51.632;4.950;2023-02-18T08:41:41;9.68;;;1.55;;
21330;SDS011;10824;51.632;4.950;2023-02-18T08:44:08;4.75;;;1.60;;
21330;SDS011;10824;51.632;4.950;2023-02-18T08:46:35;4.60;;;2.05;;
21330;SDS011;10824;51.632;4.950;2023-02-18T08:49:03;4.78;;;1.63;;
21330;SDS011;10824;51.632;4.950;2023-02-18T08:51:30;5.43;;;2.00;;
21330;SDS011;10824;51.632;4.950;2023-02-18T08:53:58;6.82;;;1.40;;
21330;SDS011;10824;51.632;4.950;2023-02-18T08:56:25;13.38;;;1.80;;
21330;SDS011;10824;51.632;4.950;2023-02-18T08:58:52;3.63;;;1.63;;
21330;SDS011;10824;51.632;4.950;2023-02-18T09:01:19;7.28;;;1.90;;
21330;SDS011;10824;51.632;4.950;2023-02-18T09:03:46;10.65;;;1.88;;
21330;SDS011;10824;51.632;4.950;2023-02-18T09:06:14;14.52;;;2.30;;
21330;SDS011;10824;51.632;4.950;2023-02-18T09:08:41;3.58;;;1.45;;
21330;SDS011;10824;51.632;4.950;2023-02-18T09:11:09;9.93;;;2.38;;
21330;SDS011;10824;51.632;4.950;2023-02-18T09:13:37;6.00;;;1.35;;
21330;SDS011;10824;51.632;4.950;2023-02-18T09:16:08;10.52;;;2.70;;
21330;SDS011;10824;51.632;4.950;2023-02-18T09:18:38;13.65;;;1.83;;
21330;SDS011;10824;51.632;4.950;2023-02-18T09:21:07;6.10;;;1.42;;
21330;SDS011;10824;51.632;4.950;2023-02-18T09:23:35;5.25;;;1.95;;
21330;SDS011;10824;51.632;4.950;2023-02-18T09:26:04;4.72;;;1.40;;
21330;SDS011;10824;51.632;4.950;2023-02-18T09:28:33;7.93;;;2.55;;
21330;SDS011;10824;51.632;4.950;2023-02-18T09:31:07;3.55;;;1.30;;
21330;SDS011;10824;51.632;4.950;2023-02-18T09:33:41;3.83;;;1.42;;
21330;SDS011;10824;51.632;4.950;2023-02-18T09:36:15;3.35;;;1.08;;
21330;SDS011;10824;51.632;4.950;2023-02-18T09:38:42;5.70;;;1.40;;
21330;SDS011;10824;51.632;4.950;2023-02-18T09:41:14;3.50;;;1.02;;
21330;SDS011;10824;51.632;4.950;2023-02-18T09:47:16;10.00;;;1.52;;
21330;SDS011;10824;51.632;4.950;2023-02-18T09:49:48;2.92;;;1.30;;
21330;SDS011;10824;51.632;4.950;2023-02-18T09:52:28;2.83;;;1.27;;
21330;SDS011;10824;51.632;4.950;2023-02-18T09:54:58;7.60;;;2.15;;
21330;SDS011;10824;51.632;4.950;2023-02-18T09:58:01;4.18;;;1.40;;
21330;SDS011;10824;51.632;4.950;2023-02-18T10:00:38;1.65;;;1.00;;
21330;SDS011;10824;51.632;4.950;2023-02-18T10:03:12;5.35;;;1.73;;
21330;SDS011;10824;51.632;4.950;2023-02-18T10:06:11;5.28;;;1.20;;
21330;SDS011;10824;51.632;4.950;2023-02-18T10:08:44;9.18;;;2.17;;
21330;SDS011;10824;51.632;4.950;2023-02-18T10:11:37;4.55;;;1.33;;
21330;SDS011;10824;51.632;4.950;2023-02-18T10:14:12;5.65;;;1.60;;
21330;SDS011;10824;51.632;4.950;2023-02-18T10:16:42;4.72;;;1.20;;
21330;SDS011;10824;51.632;4.950;2023-02-18T10:19:19;5.38;;;1.65;;
21330;SDS011;10824;51.632;4.950;2023-02-18T10:21:52;4.50;;;1.40;;
21330;SDS011;10824;51.632;4.950;2023-02-18T10:24:31;2.88;;;2.28;;
21330;SDS011;10824;51.632;4.950;2023-02-18T10:27:31;2.80;;;1.20;;
21330;SDS011;10824;51.632;4.950;2023-02-18T10:30:15;7.70;;;1.52;;
21330;SDS011;10824;51.632;4.950;2023-02-18T10:33:16;5.65;;;1.42;;
21330;SDS011;10824;51.632;4.950;2023-02-18T10:35:56;5.57;;;1.77;;
21330;SDS011;10824;51.632;4.950;2023-02-18T10:41:31;10.40;;;1.02;;
21330;SDS011;10824;51.632;4.950;2023-02-18T10:44:21;8.23;;;1.35;;
21330;SDS011;10824;51.632;4.950;2023-02-18T10:47:05;4.00;;;1.90;;
21330;SDS011;10824;51.632;4.950;2023-02-18T10:49:59;4.90;;;1.42;;
21330;SDS011;10824;51.632;4.950;2023-02-18T10:52:42;4.53;;;1.30;;
21330;SDS011;10824;51.632;4.950;2023-02-18T10:55:14;1.67;;;1.10;;
21330;SDS011;10824;51.632;4.950;2023-02-18T10:57:51;6.53;;;1.40;;
21330;SDS011;10824;51.632;4.950;2023-02-18T11:00:23;8.52;;;1.90;;
21330;SDS011;10824;51.632;4.950;2023-02-18T11:05:47;2.92;;;1.10;;
21330;SDS011;10824;51.632;4.950;2023-02-18T11:08:30;5.35;;;1.30;;
21330;SDS011;10824;51.632;4.950;2023-02-18T11:11:16;5.72;;;1.27;;
21330;SDS011;10824;51.632;4.950;2023-02-18T11:13:52;6.68;;;1.42;;
21330;SDS011;10824;51.632;4.950;2023-02-18T11:16:37;6.43;;;1.40;;
21330;SDS011;10824;51.632;4.950;2023-02-18T11:19:30;6.72;;;1.38;;
21330;SDS011;10824;51.632;4.950;2023-02-18T11:22:10;2.78;;;1.30;;
21330;SDS011;10824;51.632;4.950;2023-02-18T11:24:56;13.32;;;1.45;;
21330;SDS011;10824;51.632;4.950;2023-02-18T11:30:06;14.10;;;2.03;;
21330;SDS011;10824;51.632;4.950;2023-02-18T11:32:46;6.47;;;1.13;;
21330;SDS011;10824;51.632;4.950;2023-02-18T11:35:22;3.88;;;1.23;;
21330;SDS011;10824;51.632;4.950;2023-02-18T11:37:51;5.10;;;1.30;;
21330;SDS011;10824;51.632;4.950;2023-02-18T11:40:40;2.85;;;1.13;;
21330;SDS011;10824;51.632;4.950;2023-02-18T11:45:37;4.38;;;1.02;;
21330;SDS011;10824;51.632;4.950;2023-02-18T11:48:14;3.25;;;1.10;;
21330;SDS011;10824;51.632;4.950;2023-02-18T11:50:44;3.13;;;1.35;;
21330;SDS011;10824;51.632;4.950;2023-02-18T11:55:57;4.63;;;1.02;;
21330;SDS011;10824;51.632;4.950;2023-02-18T11:58:27;6.20;;;1.38;;
21330;SDS011;10824;51.632;4.950;2023-02-18T12:01:26;5.35;;;1.30;;
21330;SDS011;10824;51.632;4.950;2023-02-18T12:04:11;4.90;;;0.95;;
21330;SDS011;10824;51.632;4.950;2023-02-18T12:06:54;1.25;;;0.82;;
21330;SDS011;10824;51.632;4.950;2023-02-18T12:09:35;2.15;;;0.85;;
21330;SDS011;10824;51.632;4.950;2023-02-18T12:12:24;2.03;;;1.08;;
21330;SDS011;10824;51.632;4.950;2023-02-18T12:14:53;2.88;;;0.93;;
21330;SDS011;10824;51.632;4.950;2023-02-18T12:25:12;5.55;;;2.30;;
21330;SDS011;10824;51.632;4.950;2023-02-18T12:43:16;5.72;;;1.30;;
21330;SDS011;10824;51.632;4.950;2023-02-18T12:51:32;2.28;;;0.80;;
21330;SDS011;10824;51.632;4.950;2023-02-18T12:54:08;2.05;;;0.90;;
21330;SDS011;10824;51.632;4.950;2023-02-18T12:56:46;2.45;;;0.88;;
21330;SDS011;10824;51.632;4.950;2023-02-18T12:59:46;5.35;;;1.00;;
21330;SDS011;10824;51.632;4.950;2023-02-18T13:14:13;3.45;;;0.90;;
21330;SDS011;10824;51.632;4.950;2023-02-18T13:16:45;1.25;;;0.80;;
21330;SDS011;10824;51.632;4.950;2023-02-18T13:22:15;3.78;;;0.80;;
21330;SDS011;10824;51.632;4.950;2023-02-18T13:24:47;6.10;;;2.13;;
21330;SDS011;10824;51.632;4.950;2023-02-18T13:27:23;5.57;;;1.00;;
21330;SDS011;10824;51.632;4.950;2023-02-18T13:30:21;2.42;;;0.95;;
21330;SDS011;10824;51.632;4.950;2023-02-18T13:33:18;2.97;;;0.90;;
21330;SDS011;10824;51.632;4.950;2023-02-18T13:36:12;3.95;;;1.30;;
21330;SDS011;10824;51.632;4.950;2023-02-18T13:41:28;3.75;;;1.00;;
21330;SDS011;10824;51.632;4.950;2023-02-18T13:44:00;7.03;;;1.20;;
21330;SDS011;10824;51.632;4.950;2023-02-18T13:46:27;1.63;;;0.82;;
21330;SDS011;10824;51.632;4.950;2023-02-18T13:49:06;1.50;;;1.15;;
21330;SDS011;10824;51.632;4.950;2023-02-18T13:51:39;6.10;;;1.30;;
21330;SDS011;10824;51.632;4.950;2023-02-18T13:56:41;2.50;;;1.15;;
21330;SDS011;10824;51.632;4.950;2023-02-18T14:04:48;2.17;;;1.00;;
21330;SDS011;10824;51.632;4.950;2023-02-18T14:15:57;1.60;;;0.90;;
21330;SDS011;10824;51.632;4.950;2023-02-18T14:18:31;3.15;;;0.90;;
21330;SDS011;10824;51.632;4.950;2023-02-18T14:26:06;4.85;;;1.27;;
21330;SDS011;10824;51.632;4.950;2023-02-18T14:28:42;2.42;;;1.10;;
21330;SDS011;10824;51.632;4.950;2023-02-18T14:42:49;7.22;;;1.75;;
21330;SDS011;10824;51.632;4.950;2023-02-18T14:48:40;5.25;;;1.00;;
21330;SDS011;10824;51.632;4.950;2023-02-18T14:51:15;4.72;;;1.00;;
21330;SDS011;10824;51.632;4.950;2023-02-18T14:53:45;2.40;;;1.10;;
21330;SDS011;10824;51.632;4.950;2023-02-18T14:56:15;3.13;;;1.25;;
21330;SDS011;10824;51.632;4.950;2023-02-18T14:58:52;4.97;;;2.08;;
21330;SDS011;10824;51.632;4.950;2023-02-18T15:08:57;2.95;;;1.25;;
21330;SDS011;10824;51.632;4.950;2023-02-18T15:11:33;2.25;;;1.10;;
21330;SDS011;10824;51.632;4.950;2023-02-18T15:14:26;5.07;;;1.05;;
21330;SDS011;10824;51.632;4.950;2023-02-18T15:17:06;1.95;;;0.98;;
21330;SDS011;10824;51.632;4.950;2023-02-18T15:19:40;2.78;;;1.50;;
21330;SDS011;10824;51.632;4.950;2023-02-18T15:22:14;4.80;;;1.30;;
21330;SDS011;10824;51.632;4.950;2023-02-18T15:24:44;2.42;;;1.10;;
21330;SDS011;10824;51.632;4.950;2023-02-18T15:29:48;5.80;;;1.25;;
21330;SDS011;10824;51.632;4.950;2023-02-18T15:32:25;5.90;;;1.27;;
21330;SDS011;10824;51.632;4.950;2023-02-18T15:34:58;4.03;;;2.15;;
21330;SDS011;10824;51.632;4.950;2023-02-18T15:37:27;2.35;;;1.05;;
21330;SDS011;10824;51.632;4.950;2023-02-18T15:39:56;4.72;;;1.30;;
21330;SDS011;10824;51.632;4.950;2023-02-18T15:44:56;6.78;;;1.40;;
21330;SDS011;10824;51.632;4.950;2023-02-18T15:47:41;4.32;;;1.45;;
21330;SDS011;10824;51.632;4.950;2023-02-18T15:50:15;3.53;;;0.95;;
21330;SDS011;10824;51.632;4.950;2023-02-18T15:52:44;4.10;;;1.38;;
21330;SDS011;10824;51.632;4.950;2023-02-18T15:55:17;9.35;;;1.50;;
21330;SDS011;10824;51.632;4.950;2023-02-18T15:57:50;2.30;;;1.27;;
21330;SDS011;10824;51.632;4.950;2023-02-18T16:00:26;4.70;;;1.25;;
21330;SDS011;10824;51.632;4.950;2023-02-18T16:02:55;3.42;;;1.02;;
21330;SDS011;10824;51.632;4.950;2023-02-18T16:05:49;2.33;;;0.95;;
21330;SDS011;10824;51.632;4.950;2023-02-18T16:08:24;3.60;;;1.33;;
21330;SDS011;10824;51.632;4.950;2023-02-18T16:10:58;4.45;;;1.85;;
21330;SDS011;10824;51.632;4.950;2023-02-18T16:13:28;6.32;;;2.78;;
21330;SDS011;10824;51.632;4.950;2023-02-18T16:15:56;3.05;;;1.20;;
21330;SDS011;10824;51.632;4.950;2023-02-18T16:18:37;11.88;;;1.77;;
21330;SDS011;10824;51.632;4.950;2023-02-18T16:21:21;3.92;;;1.48;;
21330;SDS011;10824;51.632;4.950;2023-02-18T16:23:52;2.72;;;1.13;;
21330;SDS011;10824;51.632;4.950;2023-02-18T16:29:15;3.53;;;1.55;;
21330;SDS011;10824;51.632;4.950;2023-02-18T16:31:50;6.47;;;1.75;;
21330;SDS011;10824;51.632;4.950;2023-02-18T16:34:18;1.83;;;1.42;;
21330;SDS011;10824;51.632;4.950;2023-02-18T16:36:45;7.65;;;1.50;;
21330;SDS011;10824;51.632;4.950;2023-02-18T16:39:32;9.70;;;1.73;;
21330;SDS011;10824;51.632;4.950;2023-02-18T16:42:00;4.47;;;1.55;;
21330;SDS011;10824;51.632;4.950;2023-02-18T16:44:27;3.75;;;1.88;;
21330;SDS011;10824;51.632;4.950;2023-02-18T16:46:56;4.85;;;1.50;;
21330;SDS011;10824;51.632;4.950;2023-02-18T16:49:23;10.52;;;3.55;;
21330;SDS011;10824;51.632;4.950;2023-02-18T16:51:50;7.30;;;2.53;;
21330;SDS011;10824;51.632;4.950;2023-02-18T16:54:17;7.78;;;3.63;;
21330;SDS011;10824;51.632;4.950;2023-02-18T16:56:45;3.42;;;2.10;;
21330;SDS011;10824;51.632;4.950;2023-02-18T16:59:11;6.22;;;2.50;;
21330;SDS011;10824;51.632;4.950;2023-02-18T17:01:40;18.58;;;3.47;;
21330;SDS011;10824;51.632;4.950;2023-02-18T17:04:11;7.45;;;2.92;;
21330;SDS011;10824;51.632;4.950;2023-02-18T17:06:41;7.10;;;4.03;;
21330;SDS011;10824;51.632;4.950;2023-02-18T17:09:13;9.18;;;4.40;;
21330;SDS011;10824;51.632;4.950;2023-02-18T17:11:43;8.23;;;4.32;;
21330;SDS011;10824;51.632;4.950;2023-02-18T17:14:14;10.30;;;3.90;;
21330;SDS011;10824;51.632;4.950;2023-02-18T17:16:44;11.23;;;3.72;;
21330;SDS011;10824;51.632;4.950;2023-02-18T17:19:11;10.93;;;4.43;;
21330;SDS011;10824;51.632;4.950;2023-02-18T17:21:39;12.07;;;4.32;;
21330;SDS011;10824;51.632;4.950;2023-02-18T17:24:09;9.45;;;3.63;;
21330;SDS011;10824;51.632;4.950;2023-02-18T17:26:40;8.55;;;3.33;;
21330;SDS011;10824;51.632;4.950;2023-02-18T17:29:07;6.30;;;2.80;;
21330;SDS011;10824;51.632;4.950;2023-02-18T17:31:35;9.25;;;3.20;;
21330;SDS011;10824;51.632;4.950;2023-02-18T17:34:11;6.90;;;3.38;;
21330;SDS011;10824;51.632;4.950;2023-02-18T17:37:01;10.95;;;3.42;;
21330;SDS011;10824;51.632;4.950;2023-02-18T17:39:28;9.82;;;4.25;;
21330;SDS011;10824;51.632;4.950;2023-02-18T17:41:56;6.38;;;2.90;;
21330;SDS011;10824;51.632;4.950;2023-02-18T17:44:23;11.68;;;2.97;;
21330;SDS011;10824;51.632;4.950;2023-02-18T17:46:51;11.85;;;3.35;;
21330;SDS011;10824;51.632;4.950;2023-02-18T17:49:20;8.98;;;3.75;;
21330;SDS011;10824;51.632;4.950;2023-02-18T17:51:49;9.25;;;3.80;;
21330;SDS011;10824;51.632;4.950;2023-02-18T17:54:18;8.05;;;3.78;;
21330;SDS011;10824;51.632;4.950;2023-02-18T17:56:48;9.82;;;4.45;;